• Join FlightAware (Why Join?)
  • Login
  • US Flag 
07:30AM EST


 

Airport Tracker/Info


-or-


 

Live Flight TrackerFlight Track Log ✈ AWE3131 ✈ 28-Jul-2014 ✈ KDFW - MMAS / AGU

Flight Track Log - Related Links

Times and Time Zones

All times are in EDT time to prevent confusion due to time zone crossing. See the AWE3131 flight status page for this flight to view local times or setup timezone preferences in your user account.

Time Position Orientation Groundspeed Altitude Reporting Facility
EDT Latitude Longitude Course Direction KTS MPH feet Rate Location/Type
09:13PM 32.9167 -97.0500 185° South 166 191 1,100  Level Dallas / Fort Worth TRACON
09:14PM 32.9500 -97.0500 360° North 197 227 2,900 1,860 Climbing Dallas / Fort Worth TRACON
09:15PM 33.0167 -97.0833 337° Northwest 235 270 4,900 2,100 Climbing Dallas / Fort Worth TRACON
09:16PM 33.0167 -97.1667 270° West 229 264 7,200 1,800 Climbing Dallas / Fort Worth TRACON
09:17PM 32.3747 -97.1122 205° Southwest  Level FlightAware Approximate
09:17PM 32.9878 -97.2594 250° West 267 307 8,800  Level Fort Worth Center
09:18PM 32.2827 -97.1834 185° South  Level FlightAware Approximate
09:18PM 32.9183 -97.2986 205° Southwest 290 334 10,600  Level Fort Worth Center
09:19PM 32.8308 -97.2900 175° South 315 362 11,600 1,080 Climbing Fort Worth Center
09:20PM 32.7283 -97.2772 174° South 344 396 12,900 1,260 Climbing Fort Worth Center
09:21PM 32.6297 -97.2556 170° South 354 407 14,200 1,260 Climbing Fort Worth Center
09:22PM 32.5314 -97.2364 171° South 356 410 15,500 1,200 Climbing Fort Worth Center
09:23PM 32.4314 -97.2164 170° South 361 415 16,700 1,080 Climbing Fort Worth Center
09:24PM 32.3211 -97.1942 170° South 372 428 17,800 1,260 Climbing Fort Worth Center
09:25PM 32.2211 -97.1906 178° South 361 415 19,300 1,500 Climbing Fort Worth Center
09:26PM 32.1242 -97.2067 188° South 353 406 20,900 1,560 Climbing Fort Worth Center
09:27PM 32.0203 -97.2214 187° South 349 402 22,500 1,380 Climbing Fort Worth Center
09:28PM 31.9342 -97.2328 186° South 347 399 23,800 1,200 Climbing Fort Worth Center
09:29PM 31.8419 -97.2450 186° South 338 389 25,000 1,080 Climbing Fort Worth Center
09:30PM 31.7456 -97.2564 186° South 343 395 26,100 1,020 Climbing Fort Worth Center
09:31PM 31.6489 -97.2728 188° South 348 400 27,100 960 Climbing Fort Worth Center
09:32PM 31.5586 -97.3181 203° Southwest 352 405 28,100 1,080 Climbing Fort Worth Center
09:33PM 31.4492 -97.3711 202° Southwest 352 405 29,400 1,080 Climbing Fort Worth Center
09:34PM 31.3597 -97.4231 206° Southwest 356 410 30,400 960 Climbing Fort Worth Center
09:35PM 31.2711 -97.4742 206° Southwest 356 410 31,400 960 Climbing Fort Worth Center
09:36PM 31.1828 -97.5244 206° Southwest 356 410 32,400 960 Climbing Fort Worth Center
09:37PM 31.0947 -97.5747 206° Southwest 356 410 33,400 780 Climbing Fort Worth Center
09:38PM 31.0069 -97.6253 206° Southwest 354 407 34,000 480 Climbing Fort Worth Center
09:39PM 30.9128 -97.6781 206° Southwest 375 432 34,400 780 Climbing Fort Worth Center
09:40PM 30.8194 -97.7292 205° Southwest 375 432 35,500 840 Climbing Houston Center
09:41PM 30.7272 -97.7806 206° Southwest 373 429 36,000 240 Climbing Houston Center
09:42PM 30.6303 -97.8347 206° Southwest 381 438 36,000  Level Houston Center
09:43PM 30.5264 -97.8933 206° Southwest 411 473 36,000  Level Houston Center
09:44PM 30.4186 -97.9542 206° Southwest 427 491 36,000  Level Houston Center
09:45PM 30.2925 -98.0244 206° Southwest 429 494 36,000  Level Houston Center
09:46PM 30.1767 -98.0889 206° Southwest 429 494 36,000  Level Houston Center
09:47PM 30.0700 -98.1486 206° Southwest 428 493 36,000  Level Houston Center
09:48PM 29.9639 -98.2067 205° Southwest 424 488 36,000  Level Houston Center
09:49PM 29.8581 -98.2647 205° Southwest 421 484 36,000  Level Houston Center
09:50PM 29.7461 -98.3261 205° Southwest 415 478 36,000  Level Houston Center
09:51PM 29.6444 -98.3811 205° Southwest 405 466 36,000  Level Houston Center
09:52PM 29.5381 -98.4400 206° Southwest 432 497 36,000  Level Houston Center
09:53PM 29.4231 -98.5008 205° Southwest 442 509 36,000  Level Houston Center
09:54PM 29.3231 -98.5575 206° Southwest 409 471 36,000  Level Houston Center
09:55PM 29.2200 -98.6139 206° Southwest 409 471 36,000  Level Houston Center
09:56PM 29.1097 -98.6750 206° Southwest 409 471 36,000  Level Houston Center
09:57PM 29.0061 -98.7308 205° Southwest 410 472 36,000  Level Houston Center
09:58PM 28.9028 -98.7864 205° Southwest 410 472 36,000  Level Houston Center
09:59PM 28.7992 -98.8425 205° Southwest 411 473 36,000  Level Houston Center
10:00PM 28.6869 -98.9019 205° Southwest 412 474 36,000  Level Houston Center
10:02PM 28.5861 -98.9569 206° Southwest 411 473 36,000  Level Houston Center
10:03PM 28.4817 -99.0119 205° Southwest 412 474 36,000  Level Houston Center
10:04PM 28.3781 -99.0675 205° Southwest 412 474 36,000  Level Houston Center
10:05PM 28.2742 -99.1233 205° Southwest 413 475 36,000  Level Houston Center
10:06PM 28.1694 -99.1800 206° Southwest 415 478 36,000  Level Houston Center
10:07PM 28.0642 -99.2356 205° Southwest 416 479 36,000  Level Houston Center
10:08PM 27.9586 -99.2914 205° Southwest 419 482 36,000  Level Houston Center
10:09PM 27.8522 -99.3486 205° Southwest 423 487 36,000  Level Houston Center
10:10PM 27.7233 -99.4156 205° Southwest 426 490 36,000  Level Houston Center
10:11PM 27.6156 -99.4722 205° Southwest 429 494 36,000  Level Houston Center
10:12PM 27.5083 -99.5292 205° Southwest 429 494 36,000  Level Houston Center
10:14PM 27.3289 -99.5960 197° South  Level FlightAware Approximate
10:21PM 26.6287 -99.8216 196° South  Level FlightAware Approximate
10:22PM 26.5287 -99.8536 196° South  Level FlightAware Approximate
10:23PM 26.4286 -99.8856 196° South  Level FlightAware Approximate
10:24PM 26.3286 -99.9178 196° South  Level FlightAware Approximate
10:25PM 26.2287 -99.9503 196° South  Level FlightAware Approximate
10:26PM 26.1288 -99.9828 196° South  Level FlightAware Approximate
10:27PM 26.0289 -100.0152 196° South  Level FlightAware Approximate
10:28PM 25.9290 -100.0476 196° South  Level FlightAware Approximate
10:29PM 25.8291 -100.0799 196° South  Level FlightAware Approximate
10:30PM 25.7357 -100.1264 218° Southwest  Level FlightAware Approximate
10:31PM 25.6531 -100.1968 218° Southwest  Level FlightAware Approximate
10:32PM 25.5706 -100.2670 218° Southwest  Level FlightAware Approximate
10:33PM 25.4880 -100.3372 217° Southwest  Level FlightAware Approximate
10:34PM 25.4053 -100.4072 217° Southwest  Level FlightAware Approximate
10:35PM 25.3227 -100.4772 217° Southwest  Level FlightAware Approximate
10:36PM 25.2400 -100.5471 217° Southwest  Level FlightAware Approximate
10:37PM 25.1572 -100.6168 217° Southwest  Level FlightAware Approximate
10:38PM 25.0745 -100.6865 217° Southwest  Level FlightAware Approximate
10:39PM 24.9917 -100.7561 217° Southwest  Level FlightAware Approximate
10:40PM 24.9088 -100.8255 217° Southwest  Level FlightAware Approximate
10:41PM 24.8260 -100.8949 217° Southwest  Level FlightAware Approximate
10:42PM 24.7440 -100.9656 218° Southwest  Level FlightAware Approximate
10:43PM 24.6625 -101.0367 218° Southwest  Level FlightAware Approximate
10:44PM 24.5809 -101.1078 218° Southwest  Level FlightAware Approximate
10:45PM 24.4993 -101.1787 218° Southwest  Level FlightAware Approximate
10:46PM 24.4176 -101.2496 218° Southwest  Level FlightAware Approximate
10:47PM 24.3359 -101.3204 218° Southwest  Level FlightAware Approximate
10:48PM 24.2542 -101.3911 218° Southwest  Level FlightAware Approximate
10:49PM 24.1724 -101.4617 218° Southwest  Level FlightAware Approximate
10:50PM 24.0757 -101.5026 197° South  Level FlightAware Approximate
10:51PM 23.9762 -101.5359 198° South  Level FlightAware Approximate
10:52PM 23.8774 -101.5719 198° South  Level FlightAware Approximate
10:53PM 23.7787 -101.6078 198° South  Level FlightAware Approximate
10:54PM 23.6799 -101.6437 198° South  Level FlightAware Approximate
10:55PM 23.5809 -101.6786 197° South  Level FlightAware Approximate
10:56PM 23.4809 -101.7043 200° South  Level FlightAware Approximate
10:57PM 23.3832 -101.7434 200° South  Level FlightAware Approximate
10:58PM 23.2857 -101.7825 197° South  Level FlightAware Approximate
10:59PM 23.1860 -101.8150 196° South  Level FlightAware Approximate
11:00PM 23.0861 -101.8465 196° South  Level FlightAware Approximate
11:01PM 22.9862 -101.8781 196° South  Level FlightAware Approximate
11:02PM 22.8865 -101.9107 198° South  Level FlightAware Approximate
11:03PM 22.7876 -101.9456 198° South  Level FlightAware Approximate
11:04PM 22.6886 -101.9805 198° South  Level FlightAware Approximate
11:05PM 22.5888 -102.0122 194° South  Level FlightAware Approximate
11:06PM 22.4879 -102.0397 194° South  Level FlightAware Approximate
11:07PM 22.3910 -102.0795 205° Southwest  Level FlightAware Approximate
11:08PM 22.2937 -102.1186 196° South  Level FlightAware Approximate
11:09PM 22.1936 -102.1494 196° South  Level FlightAware Approximate
11:10PM 22.0935 -102.1802 196° South  Level FlightAware Approximate
11:11PM 21.9940 -102.2131 197° South  Level FlightAware Approximate
11:12PM 21.8946 -102.2462 197° South  Level FlightAware Approximate
11:13PM 21.7954 -102.2776 191° South  Level FlightAware Approximate
11:14PM 21.7000 -102.3167 North  Level FlightAware Approximate
11:15PM 21.7055 -102.3179 North  Level Estimated
11:16PM 21.7000 -102.3167 North  Level FlightAware Approximate
11:17PM 21.7055 -102.3179 North  Level Estimated
11:18PM 21.7000 -102.3167 North  Level FlightAware Approximate
11:19PM 21.7055 -102.3179 North  Level Estimated
11:20PM 21.7000 -102.3167 North  Level FlightAware Approximate
11:21PM 21.7055 -102.3179 North  Level Estimated